Time;durP1;ratioP1;P1;durP2;ratioP2;P2;SDS_P1;SDS_P2;PMS_P1;PMS_P2;Temp;Humidity;BMP_temperature;BMP_pressure;BME280_temperature;BME280_humidity;BME280_pressure;Samples;Min_cycle;Max_cycle;Signal;HPM_P1;HPM_P2
2021/08/19 00:01:27;;;;;;;12.13;5.60;;;;;;;;;;4994799;28;20030;-44
2021/08/19 00:03:53;;;;;;;8.23;3.45;;;;;;;;;;4994831;28;20040;-42
2021/08/19 00:06:19;;;;;;;8.25;3.80;;;;;;;;;;4994822;28;20027;-42
2021/08/19 00:08:47;;;;;;;6.20;3.03;;;;;;;;;;4994462;28;20121;-41
2021/08/19 00:11:13;;;;;;;8.45;2.58;;;;;;;;;;4994660;28;20057;-42
2021/08/19 00:13:42;;;;;;;7.15;2.60;;;;;;;;;;4994681;28;20471;-41
2021/08/19 00:16:08;;;;;;;4.82;2.25;;;;;;;;;;4994490;28;20458;-43
2021/08/19 00:18:35;;;;;;;5.68;2.20;;;;;;;;;;4994774;28;20106;-42
2021/08/19 00:21:01;;;;;;;7.78;2.75;;;;;;;;;;4993649;28;20069;-42
2021/08/19 00:23:27;;;;;;;33.90;20.98;;;;;;;;;;4994584;28;20073;-43
2021/08/19 00:25:53;;;;;;;9.77;5.25;;;;;;;;;;4994517;28;20105;-43
2021/08/19 00:28:19;;;;;;;13.73;7.20;;;;;;;;;;4994485;28;20033;-42
2021/08/19 00:30:48;;;;;;;11.10;5.40;;;;;;;;;;4994224;28;20032;-42
2021/08/19 00:33:19;;;;;;;8.95;4.38;;;;;;;;;;4994268;28;20047;-42
2021/08/19 00:35:45;;;;;;;;;;;;;;;;;;4994780;28;20018;-39
2021/08/19 00:38:11;;;;;;;8.05;2.75;;;;;;;;;;4994298;28;20306;-42
2021/08/19 00:40:37;;;;;;;13.02;6.22;;;;;;;;;;4994381;28;20030;-42
2021/08/19 00:43:06;;;;;;;14.15;6.80;;;;;;;;;;4994234;28;20085;-43
2021/08/19 00:45:36;;;;;;;14.90;7.80;;;;;;;;;;4994200;28;20057;-43
2021/08/19 00:48:05;;;;;;;24.45;15.90;;;;;;;;;;4994136;28;20081;-41
2021/08/19 00:50:31;;;;;;;18.15;8.73;;;;;;;;;;4994101;28;20105;-42
2021/08/19 00:53:00;;;;;;;12.13;4.53;;;;;;;;;;4994154;28;20382;-42
2021/08/19 00:55:27;;;;;;;9.57;4.70;;;;;;;;;;4994193;28;20398;-44
2021/08/19 00:57:56;;;;;;;9.50;4.55;;;;;;;;;;4993973;28;20065;-43
2021/08/19 01:00:23;;;;;;;11.20;5.97;;;;;;;;;;4993911;28;20158;-40
2021/08/19 01:02:50;;;;;;;37.63;8.07;;;;;;;;;;4993855;28;20109;-40
2021/08/19 01:05:17;;;;;;;10.45;5.90;;;;;;;;;;4993968;28;20026;-42
2021/08/19 01:07:47;;;;;;;9.57;2.67;;;;;;;;;;4993905;28;20027;-42
2021/08/19 01:10:13;;;;;;;6.30;3.20;;;;;;;;;;4993527;28;20046;-46
2021/08/19 01:12:43;;;;;;;11.27;4.25;;;;;;;;;;4994284;28;20031;-42
2021/08/19 01:15:10;;;;;;;12.55;7.22;;;;;;;;;;4993539;28;20033;-44
2021/08/19 01:17:36;;;;;;;9.10;4.53;;;;;;;;;;4993420;28;20097;-45
2021/08/19 01:20:03;;;;;;;15.07;4.78;;;;;;;;;;4993901;28;20109;-42
2021/08/19 01:22:29;;;;;;;7.32;4.00;;;;;;;;;;4993609;28;20026;-45
2021/08/19 01:24:55;;;;;;;8.57;3.60;;;;;;;;;;4993541;28;20084;-43
2021/08/19 01:27:22;;;;;;;8.43;3.40;;;;;;;;;;4992293;28;20052;-42
2021/08/19 01:29:49;;;;;;;8.25;3.25;;;;;;;;;;4993493;28;20498;-46
2021/08/19 01:32:16;;;;;;;5.35;2.67;;;;;;;;;;4994016;28;20033;-45
2021/08/19 01:34:42;;;;;;;8.05;2.78;;;;;;;;;;4997679;28;20061;-44
2021/08/19 01:37:08;;;;;;;6.65;2.55;;;;;;;;;;4997807;28;20034;-43
2021/08/19 01:39:35;;;;;;;8.18;3.08;;;;;;;;;;4997677;28;20023;-44
2021/08/19 01:42:01;;;;;;;8.18;2.80;;;;;;;;;;4997729;28;20479;-45
2021/08/19 01:44:27;;;;;;;5.57;2.70;;;;;;;;;;4997618;28;20023;-51
2021/08/19 01:46:55;;;;;;;6.15;2.60;;;;;;;;;;4997540;28;20062;-44
2021/08/19 01:49:21;;;;;;;5.18;2.35;;;;;;;;;;4997817;28;20030;-44
2021/08/19 01:51:48;;;;;;;9.35;2.80;;;;;;;;;;4997477;28;20471;-47
2021/08/19 01:54:14;;;;;;;6.47;2.75;;;;;;;;;;4997635;28;20030;-44
2021/08/19 01:56:40;;;;;;;8.55;2.78;;;;;;;;;;4997241;28;20383;-44
2021/08/19 01:59:08;;;;;;;8.88;2.80;;;;;;;;;;4997038;28;20026;-43
2021/08/19 02:01:34;;;;;;;6.25;2.33;;;;;;;;;;4996980;28;20471;-44
2021/08/19 02:04:03;;;;;;;5.68;2.63;;;;;;;;;;4997277;28;20034;-44
2021/08/19 02:06:29;;;;;;;5.30;2.50;;;;;;;;;;4997371;28;20440;-44
2021/08/19 02:08:55;;;;;;;11.10;2.53;;;;;;;;;;4996903;28;20112;-44
2021/08/19 02:11:21;;;;;;;5.85;2.40;;;;;;;;;;4997099;28;20073;-44
2021/08/19 02:13:47;;;;;;;6.07;3.03;;;;;;;;;;4996945;28;20493;-44
2021/08/19 02:16:14;;;;;;;7.35;2.47;;;;;;;;;;4996831;28;20026;-45
2021/08/19 02:18:40;;;;;;;8.02;3.05;;;;;;;;;;4996982;28;20041;-44
2021/08/19 02:21:06;;;;;;;7.78;3.40;;;;;;;;;;4997031;28;20511;-44
2021/08/19 02:23:32;;;;;;;9.52;2.90;;;;;;;;;;4996941;28;20113;-45
2021/08/19 02:25:58;;;;;;;6.30;2.95;;;;;;;;;;4996867;28;20018;-45
2021/08/19 02:28:24;;;;;;;9.93;2.83;;;;;;;;;;4996926;28;20033;-44
2021/08/19 02:30:50;;;;;;;5.00;2.53;;;;;;;;;;4996648;28;20022;-43
2021/08/19 02:33:16;;;;;;;10.30;2.50;;;;;;;;;;4996781;28;20509;-42
2021/08/19 02:35:42;;;;;;;7.07;3.38;;;;;;;;;;4996823;28;20154;-42
2021/08/19 02:38:09;;;;;;;8.73;3.10;;;;;;;;;;4996861;28;20487;-43
2021/08/19 02:40:36;;;;;;;8.68;2.80;;;;;;;;;;4996565;28;20034;-44
2021/08/19 02:43:05;;;;;;;7.28;2.65;;;;;;;;;;4996554;28;20030;-45
2021/08/19 02:45:32;;;;;;;9.68;3.10;;;;;;;;;;4995263;28;20120;-44
2021/08/19 02:48:00;;;;;;;5.57;2.90;;;;;;;;;;4996550;28;20430;-44
2021/08/19 02:50:27;;;;;;;6.53;2.63;;;;;;;;;;4996547;28;20093;-44
2021/08/19 02:52:53;;;;;;;7.68;2.67;;;;;;;;;;4996353;28;20395;-43
2021/08/19 02:55:22;;;;;;;9.07;2.83;;;;;;;;;;4996329;28;20066;-46
2021/08/19 02:57:48;;;;;;;6.82;2.47;;;;;;;;;;4996418;28;20030;-44
2021/08/19 03:00:14;;;;;;;7.93;2.80;;;;;;;;;;4996203;28;20058;-42
2021/08/19 03:02:40;;;;;;;8.65;3.17;;;;;;;;;;4996150;28;20057;-43
2021/08/19 03:05:06;;;;;;;9.25;3.00;;;;;;;;;;4996308;28;20085;-42
2021/08/19 03:07:32;;;;;;;10.40;2.90;;;;;;;;;;4996326;28;20053;-42
2021/08/19 03:09:59;;;;;;;7.03;2.72;;;;;;;;;;4995755;28;20050;-42
2021/08/19 03:12:25;;;;;;;8.80;2.92;;;;;;;;;;4996079;28;20109;-44
2021/08/19 03:14:51;;;;;;;6.18;2.47;;;;;;;;;;4995856;28;20023;-45
2021/08/19 03:17:18;;;;;;;7.72;2.67;;;;;;;;;;4996001;28;20030;-45
2021/08/19 03:19:44;;;;;;;8.50;2.78;;;;;;;;;;4995935;28;20026;-43
2021/08/19 03:22:10;;;;;;;9.43;3.40;;;;;;;;;;4995803;28;20033;-45
2021/08/19 03:24:36;;;;;;;9.63;2.92;;;;;;;;;;4995808;28;20080;-44
2021/08/19 03:27:03;;;;;;;8.35;3.15;;;;;;;;;;4995814;28;20041;-45
2021/08/19 03:29:32;;;;;;;10.48;3.13;;;;;;;;;;4994220;28;20050;-44
2021/08/19 03:31:58;;;;;;;10.23;2.88;;;;;;;;;;4995478;28;20109;-43
2021/08/19 03:34:24;;;;;;;7.60;2.38;;;;;;;;;;4995579;28;20022;-44
2021/08/19 03:36:50;;;;;;;5.95;2.55;;;;;;;;;;4995598;28;20034;-44
2021/08/19 03:39:16;;;;;;;8.63;3.47;;;;;;;;;;4995507;28;20034;-44
2021/08/19 03:41:47;;;;;;;8.63;2.72;;;;;;;;;;4995539;28;20213;-46
2021/08/19 03:44:15;;;;;;;16.37;4.23;;;;;;;;;;4995260;28;20033;-44
2021/08/19 03:46:42;;;;;;;9.90;2.70;;;;;;;;;;4995408;28;20022;-45
2021/08/19 03:49:08;;;;;;;6.28;3.22;;;;;;;;;;4995521;28;20415;-45
2021/08/19 03:51:34;;;;;;;6.32;3.22;;;;;;;;;;4995370;28;20034;-44
2021/08/19 03:54:00;;;;;;;5.88;3.30;;;;;;;;;;4995208;28;20097;-45
2021/08/19 03:56:32;;;;;;;7.32;3.40;;;;;;;;;;4994833;28;20033;-45
2021/08/19 03:58:58;;;;;;;6.45;2.95;;;;;;;;;;4995105;28;20104;-45
2021/08/19 04:01:24;;;;;;;5.13;2.75;;;;;;;;;;4995048;28;20019;-44
2021/08/19 04:03:51;;;;;;;6.15;2.88;;;;;;;;;;4994869;28;20026;-45
2021/08/19 04:06:18;;;;;;;9.82;4.30;;;;;;;;;;4995035;28;20176;-45
2021/08/19 04:08:44;;;;;;;9.68;5.57;;;;;;;;;;4994834;28;20517;-45
2021/08/19 04:11:10;;;;;;;10.30;4.80;;;;;;;;;;4995100;28;20486;-44
2021/08/19 04:13:39;;;;;;;8.68;4.60;;;;;;;;;;4994811;28;20062;-44
2021/08/19 04:16:05;;;;;;;8.48;4.03;;;;;;;;;;4994963;28;20107;-44
2021/08/19 04:18:31;;;;;;;8.57;3.72;;;;;;;;;;4994713;28;20042;-45
2021/08/19 04:20:57;;;;;;;9.95;3.53;;;;;;;;;;4994732;28;20058;-43
2021/08/19 04:23:23;;;;;;;8.63;3.20;;;;;;;;;;4994725;28;20031;-44
2021/08/19 04:25:49;;;;;;;6.78;3.50;;;;;;;;;;4994646;28;20081;-44
2021/08/19 04:28:16;;;;;;;9.80;3.42;;;;;;;;;;4994512;28;20434;-45
2021/08/19 04:30:42;;;;;;;6.38;2.92;;;;;;;;;;4994630;28;20068;-45
2021/08/19 04:33:08;;;;;;;9.75;3.50;;;;;;;;;;4994567;28;20061;-44
2021/08/19 04:35:34;;;;;;;8.25;3.42;;;;;;;;;;4994828;28;20149;-44
2021/08/19 04:38:01;;;;;;;13.30;3.67;;;;;;;;;;4994450;28;20117;-45
2021/08/19 04:40:27;;;;;;;10.40;3.55;;;;;;;;;;4994186;28;20022;-44
2021/08/19 04:42:53;;;;;;;12.23;3.85;;;;;;;;;;4994432;28;20368;-44
2021/08/19 04:45:19;;;;;;;12.63;3.63;;;;;;;;;;4994455;28;20074;-46
2021/08/19 04:47:45;;;;;;;13.70;3.70;;;;;;;;;;4994024;28;20022;-45
2021/08/19 04:50:11;;;;;;;12.52;3.20;;;;;;;;;;4994266;28;20057;-45
2021/08/19 04:52:37;;;;;;;9.57;3.72;;;;;;;;;;4994008;28;20030;-45
2021/08/19 04:55:03;;;;;;;6.95;2.88;;;;;;;;;;4994144;28;20041;-44
2021/08/19 04:57:29;;;;;;;7.78;3.33;;;;;;;;;;4994054;28;20042;-44
2021/08/19 04:59:56;;;;;;;9.23;4.57;;;;;;;;;;4994142;28;20038;-41
2021/08/19 05:02:22;;;;;;;27.00;17.30;;;;;;;;;;4994162;28;20034;-42
2021/08/19 05:04:48;;;;;;;12.02;6.25;;;;;;;;;;4994040;28;20039;-42
2021/08/19 05:07:14;;;;;;;9.27;5.40;;;;;;;;;;4993434;28;20049;-42
2021/08/19 05:09:41;;;;;;;11.65;5.57;;;;;;;;;;4993679;28;20050;-41
2021/08/19 05:12:08;;;;;;;10.65;4.20;;;;;;;;;;4993962;28;20026;-41
2021/08/19 05:14:34;;;;;;;9.95;3.75;;;;;;;;;;4993757;28;20494;-43
2021/08/19 05:17:01;;;;;;;11.88;6.43;;;;;;;;;;4993616;28;20031;-43
2021/08/19 05:19:27;;;;;;;12.95;5.80;;;;;;;;;;4993909;28;20030;-43
2021/08/19 05:21:53;;;;;;;21.70;11.52;;;;;;;;;;4994019;28;20068;-42
2021/08/19 05:24:20;;;;;;;25.40;18.25;;;;;;;;;;4993740;28;20022;-42
2021/08/19 05:26:46;;;;;;;12.80;6.07;;;;;;;;;;4993835;28;20053;-42
2021/08/19 05:29:14;;;;;;;14.20;6.85;;;;;;;;;;4993717;28;20483;-42
2021/08/19 05:31:40;;;;;;;25.00;18.50;;;;;;;;;;4993934;28;20038;-42
2021/08/19 05:34:08;;;;;;;18.15;10.70;;;;;;;;;;4993635;28;20026;-42
2021/08/19 05:36:34;;;;;;;19.58;13.23;;;;;;;;;;4993645;28;20026;-43
2021/08/19 05:39:01;;;;;;;11.77;6.35;;;;;;;;;;4992295;28;20402;-43
2021/08/19 05:41:27;;;;;;;12.95;4.75;;;;;;;;;;4993674;28;20026;-43
2021/08/19 05:43:53;;;;;;;10.88;5.35;;;;;;;;;;4993751;28;20061;-43
2021/08/19 05:46:19;;;;;;;11.00;4.78;;;;;;;;;;4993815;28;20022;-43
2021/08/19 05:48:45;;;;;;;41.45;20.23;;;;;;;;;;4993484;28;20134;-43
2021/08/19 05:51:12;;;;;;;20.58;9.15;;;;;;;;;;4993611;28;20026;-43
2021/08/19 05:53:38;;;;;;;25.38;14.43;;;;;;;;;;4993709;28;20434;-43
2021/08/19 05:56:04;;;;;;;26.83;11.85;;;;;;;;;;4993433;28;20018;-41
2021/08/19 05:58:31;;;;;;;20.17;9.30;;;;;;;;;;4993460;28;20092;-43
2021/08/19 06:00:57;;;;;;;28.60;16.33;;;;;;;;;;4993389;28;20027;-42
2021/08/19 06:03:25;;;;;;;16.80;8.43;;;;;;;;;;4993349;28;20030;-43
2021/08/19 06:05:51;;;;;;;22.30;11.95;;;;;;;;;;4993693;28;20022;-43
2021/08/19 06:08:17;;;;;;;15.70;11.77;;;;;;;;;;4993274;28;20028;-43
2021/08/19 06:10:43;;;;;;;12.77;8.57;;;;;;;;;;4993281;28;20569;-43
2021/08/19 06:13:09;;;;;;;6.72;4.80;;;;;;;;;;4993282;28;20505;-42
2021/08/19 06:15:36;;;;;;;9.63;4.93;;;;;;;;;;4993183;28;20022;-43
2021/08/19 06:18:02;;;;;;;9.18;4.68;;;;;;;;;;4991820;28;20410;-43
2021/08/19 06:20:28;;;;;;;13.95;6.65;;;;;;;;;;4996988;28;20085;-42
2021/08/19 06:22:55;;;;;;;21.60;14.45;;;;;;;;;;4997092;28;20037;-43
2021/08/19 06:25:24;;;;;;;8.15;4.22;;;;;;;;;;4996883;28;20037;-42
2021/08/19 06:27:51;;;;;;;7.85;4.57;;;;;;;;;;4996904;28;20411;-42
2021/08/19 06:30:17;;;;;;;10.95;4.75;;;;;;;;;;4996630;28;20029;-41
2021/08/19 06:32:43;;;;;;;13.07;4.93;;;;;;;;;;4996848;28;20026;-42
2021/08/19 06:35:09;;;;;;;9.98;4.40;;;;;;;;;;4996742;28;20080;-41
2021/08/19 06:37:36;;;;;;;7.20;3.67;;;;;;;;;;4996693;28;20482;-41
2021/08/19 06:40:02;;;;;;;7.35;4.05;;;;;;;;;;4996348;28;20042;-40
2021/08/19 06:42:28;;;;;;;12.25;6.65;;;;;;;;;;4996488;28;20049;-41
2021/08/19 06:44:54;;;;;;;8.20;4.93;;;;;;;;;;4996362;28;20080;-41
2021/08/19 06:47:21;;;;;;;8.52;5.97;;;;;;;;;;4996691;28;20026;-41
2021/08/19 06:49:49;;;;;;;12.43;9.05;;;;;;;;;;4996136;28;20068;-39
2021/08/19 06:52:15;;;;;;;6.28;4.70;;;;;;;;;;4996439;28;20582;-41
2021/08/19 06:54:41;;;;;;;9.10;6.50;;;;;;;;;;4996277;28;20022;-42
2021/08/19 06:57:07;;;;;;;16.40;8.70;;;;;;;;;;4996195;28;20037;-41
2021/08/19 06:59:33;;;;;;;7.18;4.50;;;;;;;;;;4996131;28;20034;-41
2021/08/19 07:01:59;;;;;;;8.80;4.75;;;;;;;;;;4996076;28;20022;-41
2021/08/19 07:04:26;;;;;;;6.43;3.92;;;;;;;;;;4996117;28;20034;-42
2021/08/19 07:06:57;;;;;;;3.75;2.97;;;;;;;;;;4996213;28;20050;-41
2021/08/19 07:09:23;;;;;;;6.97;2.78;;;;;;;;;;4995724;28;20522;-41
2021/08/19 07:11:49;;;;;;;4.85;3.15;;;;;;;;;;4995987;28;20402;-41
2021/08/19 07:14:15;;;;;;;41.35;26.67;;;;;;;;;;4995742;28;20060;-40
2021/08/19 07:16:44;;;;;;;43.45;31.45;;;;;;;;;;4995783;28;20026;-41
2021/08/19 07:19:12;;;;;;;10.18;6.53;;;;;;;;;;4995682;28;20034;-43
2021/08/19 07:21:39;;;;;;;5.53;3.85;;;;;;;;;;4996049;28;20022;-42
2021/08/19 07:24:05;;;;;;;5.22;3.47;;;;;;;;;;4995904;28;20525;-42
2021/08/19 07:26:31;;;;;;;6.35;3.35;;;;;;;;;;4995918;28;20058;-40
2021/08/19 07:28:57;;;;;;;10.82;6.97;;;;;;;;;;4995639;28;20026;-43
2021/08/19 07:31:24;;;;;;;16.95;10.00;;;;;;;;;;4995110;28;20387;-41
2021/08/19 07:33:50;;;;;;;11.13;5.60;;;;;;;;;;4995626;28;20080;-41
2021/08/19 07:36:16;;;;;;;9.77;6.88;;;;;;;;;;4995860;28;20019;-41
2021/08/19 07:38:42;;;;;;;11.88;9.20;;;;;;;;;;4995848;28;20073;-41
2021/08/19 07:41:08;;;;;;;4.68;3.47;;;;;;;;;;4995741;28;20065;-41
2021/08/19 07:43:35;;;;;;;8.27;5.97;;;;;;;;;;4995563;28;20022;-41
2021/08/19 07:46:01;;;;;;;3.22;2.42;;;;;;;;;;4995810;28;20027;-41
2021/08/19 07:48:27;;;;;;;4.07;2.17;;;;;;;;;;4995694;28;20085;-52
2021/08/19 07:50:53;;;;;;;4.25;2.17;;;;;;;;;;4995594;28;20029;-47
2021/08/19 07:53:19;;;;;;;7.85;5.35;;;;;;;;;;4995746;28;20113;-41
2021/08/19 07:55:48;;;;;;;18.20;9.27;;;;;;;;;;4994688;28;20033;-41
2021/08/19 07:58:14;;;;;;;9.43;5.03;;;;;;;;;;4993791;28;20150;-41
2021/08/19 08:00:40;;;;;;;4.95;3.45;;;;;;;;;;4994050;28;20113;-41
2021/08/19 08:03:06;;;;;;;8.52;3.38;;;;;;;;;;4993798;28;20513;-41
2021/08/19 08:05:33;;;;;;;8.45;2.05;;;;;;;;;;4993828;28;20426;-40
2021/08/19 08:08:12;;;;;;;2.15;1.80;;;;;;;;;;4993868;28;20439;-48
2021/08/19 08:10:39;;;;;;;6.07;1.88;;;;;;;;;;4991341;28;20054;-41
2021/08/19 08:13:06;;;;;;;7.43;2.80;;;;;;;;;;4993713;28;20101;-41
2021/08/19 08:15:33;;;;;;;4.72;2.25;;;;;;;;;;4993689;28;20037;-40
2021/08/19 08:17:59;;;;;;;3.75;1.70;;;;;;;;;;4993425;28;20124;-42
2021/08/19 08:20:25;;;;;;;4.22;2.20;;;;;;;;;;4994416;28;20111;-40
2021/08/19 08:22:51;;;;;;;3.38;2.20;;;;;;;;;;4994525;28;20101;-40
2021/08/19 08:25:18;;;;;;;6.13;2.20;;;;;;;;;;4994541;28;20426;-40
2021/08/19 08:27:53;;;;;;;6.85;2.58;;;;;;;;;;4993945;28;20025;-40
2021/08/19 08:30:19;;;;;;;3.65;1.90;;;;;;;;;;4993015;28;20497;-41
2021/08/19 08:32:48;;;;;;;3.88;2.00;;;;;;;;;;4993864;28;20030;-40
2021/08/19 08:35:14;;;;;;;6.28;2.15;;;;;;;;;;4993624;28;20434;-41
2021/08/19 08:37:40;;;;;;;5.63;1.77;;;;;;;;;;4992873;28;20031;-40
2021/08/19 08:40:06;;;;;;;11.55;1.88;;;;;;;;;;4993064;28;20022;-40
2021/08/19 08:42:34;;;;;;;4.82;1.95;;;;;;;;;;4992517;28;20023;-41
2021/08/19 08:45:01;;;;;;;5.50;2.00;;;;;;;;;;4993205;28;20049;-40
2021/08/19 08:47:32;;;;;;;92.32;74.38;;;;;;;;;;4993194;28;20061;-39
2021/08/19 08:49:58;;;;;;;16.00;10.45;;;;;;;;;;4994367;28;20066;-43
2021/08/19 08:52:24;;;;;;;54.45;33.25;;;;;;;;;;4994350;28;20031;-40
2021/08/19 08:54:53;;;;;;;46.78;29.83;;;;;;;;;;4994238;28;20033;-41
2021/08/19 08:57:19;;;;;;;7.70;4.60;;;;;;;;;;4994203;28;20049;-39
2021/08/19 08:59:45;;;;;;;31.23;20.88;;;;;;;;;;4994300;28;20054;-39
2021/08/19 09:02:12;;;;;;;6.47;3.80;;;;;;;;;;4994107;28;20027;-39
2021/08/19 09:04:38;;;;;;;14.43;6.95;;;;;;;;;;4993048;28;20385;-40
2021/08/19 09:07:05;;;;;;;74.72;54.20;;;;;;;;;;4993236;28;20030;-39
2021/08/19 09:09:31;;;;;;;13.35;8.43;;;;;;;;;;4992628;28;20069;-40
2021/08/19 09:12:00;;;;;;;57.55;40.65;;;;;;;;;;4992644;28;20026;-40
2021/08/19 09:14:27;;;;;;;13.07;10.52;;;;;;;;;;4990452;28;20029;-42
2021/08/19 09:16:54;;;;;;;26.27;17.58;;;;;;;;;;4992972;28;20046;-40
2021/08/19 09:19:21;;;;;;;14.40;8.70;;;;;;;;;;4989865;28;20034;-40
2021/08/19 09:21:55;;;;;;;6.20;3.00;;;;;;;;;;4992483;28;20018;-40
2021/08/19 09:24:22;;;;;;;53.90;37.88;;;;;;;;;;4992534;28;20022;-38
2021/08/19 09:26:49;;;;;;;27.45;21.10;;;;;;;;;;4993153;28;20026;-40
2021/08/19 09:29:20;;;;;;;7.82;2.67;;;;;;;;;;4993977;28;20125;-41
2021/08/19 09:31:47;;;;;;;44.22;29.55;;;;;;;;;;4993906;28;20089;-40
2021/08/19 09:34:13;;;;;;;21.63;13.68;;;;;;;;;;4993844;28;20022;-40
2021/08/19 09:36:40;;;;;;;7.38;4.25;;;;;;;;;;4993757;28;20085;-40
2021/08/19 09:39:06;;;;;;;32.00;20.92;;;;;;;;;;4993761;28;20394;-39
2021/08/19 09:41:33;;;;;;;25.92;19.58;;;;;;;;;;4993674;28;20030;-39
2021/08/19 09:43:59;;;;;;;3.70;2.63;;;;;;;;;;4993721;28;20076;-39
2021/08/19 09:46:31;;;;;;;4.10;2.33;;;;;;;;;;4993539;28;20088;-40
2021/08/19 09:49:00;;;;;;;7.47;4.70;;;;;;;;;;4993527;28;20080;-39
2021/08/19 09:51:27;;;;;;;61.20;37.47;;;;;;;;;;4993590;28;20034;-40
2021/08/19 09:54:00;;;;;;;51.40;36.40;;;;;;;;;;4994875;28;20030;-40
2021/08/19 09:56:33;;;;;;;24.80;15.82;;;;;;;;;;4997483;28;20475;-39
2021/08/19 09:59:18;;;;;;;13.18;9.48;;;;;;;;;;4997340;28;20034;-39
2021/08/19 10:01:45;;;;;;;44.58;28.75;;;;;;;;;;4997576;28;20018;-39
2021/08/19 10:04:12;;;;;;;13.63;10.98;;;;;;;;;;4997343;28;20041;-39
2021/08/19 10:06:38;;;;;;;16.17;12.40;;;;;;;;;;4997466;28;20034;-38
2021/08/19 10:09:04;;;;;;;22.00;18.20;;;;;;;;;;4997199;28;20046;-39
2021/08/19 10:11:32;;;;;;;19.45;11.85;;;;;;;;;;4997354;28;20035;-39
2021/08/19 10:14:01;;;;;;;16.70;10.80;;;;;;;;;;4997301;28;20073;-40
2021/08/19 10:16:27;;;;;;;12.00;8.73;;;;;;;;;;4997200;28;20058;-39
2021/08/19 10:18:54;;;;;;;4.80;1.80;;;;;;;;;;4996840;28;20040;-39
2021/08/19 10:21:20;;;;;;;7.03;2.33;;;;;;;;;;4997017;28;20022;-40
2021/08/19 10:23:47;;;;;;;39.45;27.88;;;;;;;;;;4996725;28;20109;-39
2021/08/19 10:26:21;;;;;;;38.00;27.83;;;;;;;;;;4997003;28;20022;-40
2021/08/19 10:28:52;;;;;;;3.83;3.38;;;;;;;;;;4997036;28;20022;-41
2021/08/19 10:31:38;;;;;;;7.00;3.95;;;;;;;;;;4996835;28;20034;-41
2021/08/19 10:34:04;;;;;;;1.73;1.40;;;;;;;;;;4996486;28;20022;-40
2021/08/19 10:36:30;;;;;;;86.95;7.78;;;;;;;;;;4997051;28;20030;-41
2021/08/19 10:39:15;;;;;;;10.02;3.40;;;;;;;;;;4996721;28;20069;-40
2021/08/19 10:41:41;;;;;;;9.55;3.70;;;;;;;;;;4996955;28;20033;-40
2021/08/19 10:44:08;;;;;;;3.28;1.63;;;;;;;;;;4997125;28;20023;-40
2021/08/19 10:46:38;;;;;;;4.68;1.77;;;;;;;;;;4997018;28;20081;-40
2021/08/19 10:49:04;;;;;;;10.35;2.65;;;;;;;;;;4996822;28;20022;-41
2021/08/19 10:51:31;;;;;;;4.53;2.08;;;;;;;;;;4996912;28;20026;-40
2021/08/19 10:53:57;;;;;;;4.65;2.50;;;;;;;;;;4996601;28;20474;-41
2021/08/19 10:56:43;;;;;;;3.30;1.83;;;;;;;;;;4996577;28;20042;-40
2021/08/19 10:59:29;;;;;;;6.15;2.25;;;;;;;;;;4996496;28;20038;-40
2021/08/19 11:01:55;;;;;;;6.38;2.00;;;;;;;;;;4996501;28;20053;-42
2021/08/19 11:04:50;;;;;;;1.88;1.52;;;;;;;;;;4996260;28;20033;-41
2021/08/19 11:07:35;;;;;;;7.68;1.10;;;;;;;;;;4974638;28;20039;-41
2021/08/19 11:10:01;;;;;;;9.88;2.08;;;;;;;;;;4974674;28;20047;-41
2021/08/19 11:12:27;;;;;;;4.65;1.75;;;;;;;;;;4975021;28;20103;-41
2021/08/19 11:14:57;;;;;;;2.38;1.40;;;;;;;;;;4975143;28;20514;-41
2021/08/19 11:17:24;;;;;;;5.88;1.38;;;;;;;;;;4974751;28;20039;-48
2021/08/19 11:19:50;;;;;;;1.80;1.40;;;;;;;;;;4974679;28;20151;-41
2021/08/19 11:22:21;;;;;;;1.88;1.13;;;;;;;;;;4974912;28;20129;-42
2021/08/19 11:24:47;;;;;;;12.57;1.75;;;;;;;;;;4974693;28;20043;-41
2021/08/19 11:27:13;;;;;;;15.82;1.88;;;;;;;;;;4974575;28;20026;-41
2021/08/19 11:29:41;;;;;;;1.85;1.05;;;;;;;;;;4974464;28;20033;-42
2021/08/19 11:32:13;;;;;;;7.40;1.58;;;;;;;;;;4974566;28;20023;-41
2021/08/19 11:34:46;;;;;;;2.72;1.52;;;;;;;;;;4958353;28;20434;-42
2021/08/19 11:37:12;;;;;;;4.88;1.65;;;;;;;;;;4974305;28;20035;-43
2021/08/19 11:39:38;;;;;;;5.50;1.63;;;;;;;;;;4958445;28;20126;-45
2021/08/19 11:42:06;;;;;;;5.47;1.40;;;;;;;;;;4974415;28;20039;-42
2021/08/19 11:44:32;;;;;;;2.85;1.23;;;;;;;;;;4993097;28;20035;-42
2021/08/19 11:46:59;;;;;;;6.97;1.52;;;;;;;;;;4996246;28;20033;-41
2021/08/19 11:49:26;;;;;;;3.58;1.70;;;;;;;;;;4995532;28;20019;-42
2021/08/19 11:51:59;;;;;;;2.67;1.10;;;;;;;;;;4994298;28;20506;-42
2021/08/19 11:54:36;;;;;;;3.42;1.90;;;;;;;;;;4995670;28;20093;-41
2021/08/19 11:57:03;;;;;;;3.67;1.40;;;;;;;;;;4995583;28;20080;-41
2021/08/19 11:59:29;;;;;;;4.47;2.10;;;;;;;;;;4995496;28;20047;-41
2021/08/19 12:01:55;;;;;;;4.53;1.98;;;;;;;;;;4995254;28;20390;-40
2021/08/19 12:04:35;;;;;;;3.15;2.20;;;;;;;;;;4995586;28;20356;-40
2021/08/19 12:07:02;;;;;;;2.83;1.58;;;;;;;;;;4995443;28;20028;-40
2021/08/19 12:09:28;;;;;;;2.20;1.30;;;;;;;;;;4994917;28;20042;-39
2021/08/19 12:11:55;;;;;;;4.13;1.48;;;;;;;;;;4995347;28;20038;-41
2021/08/19 12:14:25;;;;;;;1.95;1.30;;;;;;;;;;4995138;28;20066;-41
2021/08/19 12:16:52;;;;;;;8.80;1.10;;;;;;;;;;4994922;28;20379;-41
2021/08/19 12:19:18;;;;;;;2.50;1.50;;;;;;;;;;4993624;28;20044;-41
2021/08/19 12:21:54;;;;;;;1.10;1.00;;;;;;;;;;4995042;28;20537;-41
2021/08/19 12:24:33;;;;;;;3.22;1.20;;;;;;;;;;4995242;28;20030;-41
2021/08/19 12:27:15;;;;;;;2.78;1.67;;;;;;;;;;4994969;28;20022;-40
2021/08/19 12:29:50;;;;;;;1.52;1.17;;;;;;;;;;4994896;28;20032;-41
2021/08/19 12:32:36;;;;;;;3.60;1.65;;;;;;;;;;4994974;28;20393;-41
2021/08/19 12:35:09;;;;;;;2.83;1.33;;;;;;;;;;4994716;28;20093;-40
2021/08/19 12:37:36;;;;;;;5.05;1.20;;;;;;;;;;4994572;28;20422;-40
2021/08/19 12:40:09;;;;;;;18.33;2.55;;;;;;;;;;4994571;28;20382;-42
2021/08/19 12:42:38;;;;;;;3.55;1.70;;;;;;;;;;4994719;28;20093;-40
2021/08/19 12:45:09;;;;;;;1.88;1.40;;;;;;;;;;4994889;28;20022;-43
2021/08/19 12:47:39;;;;;;;2.08;1.23;;;;;;;;;;4994568;28;20030;-40
2021/08/19 12:50:08;;;;;;;6.07;1.58;;;;;;;;;;4994516;28;20022;-40
2021/08/19 12:52:35;;;;;;;1.80;1.30;;;;;;;;;;4994704;28;20398;-40
2021/08/19 12:55:06;;;;;;;2.00;1.60;;;;;;;;;;4994531;28;20022;-40
2021/08/19 12:57:33;;;;;;;2.42;1.40;;;;;;;;;;4994301;28;20046;-40
2021/08/19 13:00:00;;;;;;;5.28;1.90;;;;;;;;;;4994346;28;20038;-40
2021/08/19 13:02:27;;;;;;;2.65;1.45;;;;;;;;;;4994342;28;20044;-40
2021/08/19 13:04:59;;;;;;;5.65;1.88;;;;;;;;;;4994429;28;20347;-40
2021/08/19 13:07:26;;;;;;;2.83;1.65;;;;;;;;;;4994466;28;20050;-41
2021/08/19 13:09:53;;;;;;;3.40;1.50;;;;;;;;;;4994075;28;20058;-41
2021/08/19 13:12:21;;;;;;;3.42;2.20;;;;;;;;;;4994228;28;20026;-42
2021/08/19 13:14:47;;;;;;;3.60;1.60;;;;;;;;;;4994605;28;20040;-41
2021/08/19 13:17:14;;;;;;;4.35;1.70;;;;;;;;;;4994156;28;20049;-41
2021/08/19 13:19:40;;;;;;;3.25;1.80;;;;;;;;;;4993909;28;20405;-41
2021/08/19 13:22:06;;;;;;;5.32;1.60;;;;;;;;;;4994176;28;20110;-41
2021/08/19 13:24:33;;;;;;;2.92;1.70;;;;;;;;;;4994016;28;20058;-41
2021/08/19 13:26:59;;;;;;;8.15;1.73;;;;;;;;;;4993103;28;20022;-40
2021/08/19 13:29:25;;;;;;;2.30;1.45;;;;;;;;;;4993741;28;20034;-40
2021/08/19 13:31:51;;;;;;;4.15;1.85;;;;;;;;;;4994005;28;20026;-41
2021/08/19 13:34:17;;;;;;;6.72;2.15;;;;;;;;;;4993850;28;20490;-42
2021/08/19 13:36:43;;;;;;;4.57;1.83;;;;;;;;;;4994099;28;20030;-39
2021/08/19 13:39:09;;;;;;;1.75;1.40;;;;;;;;;;4992491;28;20054;-41
2021/08/19 13:41:35;;;;;;;2.88;1.45;;;;;;;;;;4993890;28;20022;-41
2021/08/19 13:44:01;;;;;;;6.07;1.85;;;;;;;;;;4994065;28;20030;-41
2021/08/19 13:46:28;;;;;;;5.00;1.65;;;;;;;;;;4994022;28;20112;-40
2021/08/19 13:48:54;;;;;;;2.97;1.80;;;;;;;;;;4993853;28;20586;-42
2021/08/19 13:51:20;;;;;;;7.22;1.95;;;;;;;;;;4993618;28;20470;-41
2021/08/19 13:53:46;;;;;;;6.53;1.88;;;;;;;;;;4993949;28;20031;-40
2021/08/19 13:56:12;;;;;;;6.55;1.95;;;;;;;;;;4993924;28;20054;-40
2021/08/19 13:58:38;;;;;;;3.95;1.90;;;;;;;;;;4993704;28;20461;-40
2021/08/19 14:01:04;;;;;;;6.53;1.73;;;;;;;;;;4993832;28;20046;-42
2021/08/19 14:03:30;;;;;;;3.05;1.88;;;;;;;;;;4994212;28;20018;-41
2021/08/19 14:05:57;;;;;;;3.58;1.40;;;;;;;;;;4993515;28;20379;-41
2021/08/19 14:08:23;;;;;;;12.50;2.20;;;;;;;;;;4993440;28;20070;-41
2021/08/19 14:10:49;;;;;;;5.07;1.80;;;;;;;;;;4993630;28;20038;-42
2021/08/19 14:13:19;;;;;;;2.63;1.45;;;;;;;;;;4993988;28;20033;-41
2021/08/19 14:15:45;;;;;;;4.22;2.00;;;;;;;;;;4993657;28;20053;-40
2021/08/19 14:18:11;;;;;;;2.55;1.75;;;;;;;;;;4993496;28;20033;-40
2021/08/19 14:20:38;;;;;;;9.35;6.57;;;;;;;;;;4993181;28;20501;-40
2021/08/19 14:23:04;;;;;;;8.80;4.32;;;;;;;;;;4993610;28;20030;-41
2021/08/19 14:25:30;;;;;;;14.50;6.80;;;;;;;;;;4993696;28;20459;-43
2021/08/19 14:27:56;;;;;;;12.25;7.88;;;;;;;;;;4993674;28;20077;-42
2021/08/19 14:30:22;;;;;;;16.23;9.30;;;;;;;;;;4993750;28;20037;-43
2021/08/19 14:32:48;;;;;;;6.22;3.90;;;;;;;;;;4993509;28;20033;-42
2021/08/19 14:35:14;;;;;;;4.57;3.00;;;;;;;;;;4993306;28;20029;-41
2021/08/19 14:37:40;;;;;;;6.28;2.08;;;;;;;;;;4993448;28;20060;-41
2021/08/19 14:40:09;;;;;;;4.60;2.40;;;;;;;;;;4993773;28;20490;-41